createdAt,value
2022-09-24T00:02:11.969Z,10.54
2022-09-24T00:04:44.941Z,10.47
2022-09-24T00:07:17.799Z,10.47
2022-09-24T00:09:50.668Z,10.43
2022-09-24T00:12:23.654Z,10.37
2022-09-24T00:14:56.508Z,10.32
2022-09-24T00:17:29.453Z,10.33
2022-09-24T00:20:02.448Z,10.34
2022-09-24T00:22:35.546Z,10.37
2022-09-24T00:25:28.185Z,10.38
2022-09-24T00:28:01.002Z,10.37
2022-09-24T00:30:33.822Z,10.28
2022-09-24T00:33:06.618Z,10.25
2022-09-24T00:35:41.449Z,10.28
2022-09-24T00:38:14.252Z,10.28
2022-09-24T00:40:47.567Z,10.27
2022-09-24T00:43:33.618Z,10.22
2022-09-24T00:46:11.074Z,10.24
2022-09-24T00:48:44.497Z,10.23
2022-09-24T00:51:20.529Z,10.22
2022-09-24T00:53:56.549Z,10.21
2022-09-24T00:56:30.297Z,10.20
2022-09-24T00:59:06.618Z,10.19
2022-09-24T01:01:40.147Z,10.22
2022-09-24T01:04:14.229Z,10.22
2022-09-24T01:06:47.131Z,10.22
2022-09-24T01:09:21.442Z,10.21
2022-09-24T01:11:58.323Z,10.19
2022-09-24T01:14:44.365Z,10.19
2022-09-24T01:17:22.485Z,10.18
2022-09-24T01:20:24.975Z,10.20
2022-09-24T01:23:08.585Z,10.18
2022-09-24T01:25:45.478Z,10.13
2022-09-24T01:28:28.924Z,10.15
2022-09-24T01:31:05.163Z,10.13
2022-09-24T01:33:39.209Z,10.10
2022-09-24T01:36:12.999Z,10.04
2022-09-24T01:38:50.743Z,10.05
2022-09-24T01:41:24.608Z,10.05
2022-09-24T01:43:59.047Z,10.02
2022-09-24T01:46:32.122Z,10.01
2022-09-24T01:49:06.392Z,10.02
2022-09-24T01:51:44.192Z,10.02
2022-09-24T01:54:21.739Z,10.00
2022-09-24T01:56:58.100Z,9.98
2022-09-24T01:59:34.078Z,10.02
2022-09-24T02:02:10.144Z,10.01
2022-09-24T02:04:47.232Z,10.00
2022-09-24T02:07:23.250Z,10.00
2022-09-24T02:09:56.322Z,9.97
2022-09-24T02:12:32.535Z,9.97
2022-09-24T02:15:09.174Z,10.00
2022-09-24T02:17:45.342Z,9.97
2022-09-24T02:20:21.423Z,9.93
2022-09-24T02:22:55.998Z,9.97
2022-09-24T02:25:32.569Z,9.92
2022-09-24T02:28:05.630Z,9.94
2022-09-24T02:30:43.756Z,9.97
2022-09-24T02:33:46.383Z,9.98
2022-09-24T02:36:20.344Z,9.97
2022-09-24T02:38:53.457Z,9.96
2022-09-24T02:41:28.611Z,9.95
2022-09-24T02:44:01.925Z,9.92
2022-09-24T02:46:34.993Z,9.94
2022-09-24T02:49:07.813Z,9.88
2022-09-24T02:51:40.584Z,9.87
2022-09-24T02:54:14.322Z,9.85
2022-09-24T02:56:47.259Z,9.82
2022-09-24T02:59:20.279Z,9.81
2022-09-24T03:01:53.442Z,9.81
2022-09-24T03:04:26.561Z,9.76
2022-09-24T03:06:59.522Z,9.71
2022-09-24T03:09:32.354Z,9.71
2022-09-24T03:12:05.669Z,9.69
2022-09-24T03:14:38.526Z,9.69
2022-09-24T03:17:11.417Z,9.71
2022-09-24T03:19:44.320Z,9.72
2022-09-24T03:22:17.217Z,9.65
2022-09-24T03:24:50.142Z,9.61
2022-09-24T03:27:23.223Z,9.57
2022-09-24T03:30:13.651Z,9.61
2022-09-24T03:32:46.557Z,9.43
2022-09-24T03:35:19.830Z,9.45
2022-09-24T03:37:52.712Z,9.49
2022-09-24T03:40:25.761Z,9.50
2022-09-24T03:42:58.703Z,9.48
2022-09-24T03:45:31.721Z,9.49
2022-09-24T03:48:06.685Z,9.47
2022-09-24T03:50:40.223Z,9.50
2022-09-24T03:53:13.330Z,9.46
2022-09-24T03:55:48.332Z,9.57
2022-09-24T03:58:21.389Z,9.52
2022-09-24T04:00:55.418Z,9.46
2022-09-24T04:03:28.584Z,9.48
2022-09-24T04:06:01.819Z,9.52
2022-09-24T04:08:35.121Z,9.51
2022-09-24T04:11:08.235Z,9.49
2022-09-24T04:13:41.103Z,9.47
2022-09-24T04:16:14.009Z,9.45
2022-09-24T04:18:48.520Z,9.50
2022-09-24T04:21:21.512Z,9.51
2022-09-24T04:23:54.315Z,9.49
2022-09-24T04:26:27.223Z,9.48
2022-09-24T04:29:00.059Z,9.48
2022-09-24T04:31:33.581Z,9.50
2022-09-24T04:34:06.461Z,9.49
2022-09-24T04:36:39.376Z,9.46
2022-09-24T04:39:13.016Z,9.49
2022-09-24T04:41:48.327Z,9.50
2022-09-24T04:44:21.278Z,9.56
2022-09-24T04:46:55.949Z,9.67
2022-09-24T04:49:29.199Z,9.72
2022-09-24T04:52:03.180Z,9.77
2022-09-24T04:54:39.313Z,9.73
2022-09-24T04:57:12.264Z,9.67
2022-09-24T04:59:45.713Z,9.59
2022-09-24T05:02:19.241Z,9.54
2022-09-24T05:04:52.252Z,9.51
2022-09-24T05:07:25.087Z,9.54
2022-09-24T05:09:58.049Z,9.62
2022-09-24T05:12:31.078Z,9.58
2022-09-24T05:15:04.202Z,9.61
2022-09-24T05:17:40.167Z,9.68
2022-09-24T05:20:13.386Z,9.68
2022-09-24T05:22:47.231Z,9.63
2022-09-24T05:25:22.438Z,9.63
2022-09-24T05:27:56.758Z,9.59
2022-09-24T05:30:29.695Z,9.58
2022-09-24T05:33:02.513Z,9.57
2022-09-24T05:35:35.426Z,9.55
2022-09-24T05:38:08.406Z,9.59
2022-09-24T05:40:50.656Z,9.60
2022-09-24T05:43:25.489Z,9.58
2022-09-24T05:45:58.885Z,9.57
2022-09-24T05:48:31.785Z,9.56
2022-09-24T05:51:05.444Z,9.58
2022-09-24T05:53:38.396Z,9.62
2022-09-24T05:56:11.744Z,9.64
2022-09-24T05:58:44.557Z,9.58
2022-09-24T06:01:17.491Z,9.56
2022-09-24T06:03:50.336Z,9.56
2022-09-24T06:06:23.249Z,9.52
2022-09-24T06:08:56.951Z,9.53
2022-09-24T06:11:34.319Z,9.53
2022-09-24T06:14:06.560Z,9.57
2022-09-24T06:16:39.519Z,9.59
2022-09-24T06:19:12.410Z,9.59
2022-09-24T06:21:45.383Z,9.54
2022-09-24T06:24:18.197Z,9.46
2022-09-24T06:26:52.283Z,9.43
2022-09-24T06:29:25.252Z,9.47
2022-09-24T06:31:58.149Z,9.45
2022-09-24T06:34:31.353Z,9.38
2022-09-24T06:37:04.202Z,9.37
2022-09-24T06:39:37.102Z,9.36
2022-09-24T06:42:09.937Z,9.39
2022-09-24T06:44:43.248Z,9.41
2022-09-24T06:47:16.144Z,9.35
2022-09-24T06:49:50.438Z,9.36
2022-09-24T06:52:23.480Z,9.41
2022-09-24T06:54:56.562Z,9.33
2022-09-24T06:57:29.713Z,9.30
2022-09-24T07:00:02.921Z,9.30
2022-09-24T07:02:35.909Z,9.26
2022-09-24T07:05:11.014Z,9.23
2022-09-24T07:07:43.972Z,9.28
2022-09-24T07:10:17.409Z,9.26
2022-09-24T07:12:50.365Z,9.22
2022-09-24T07:15:23.380Z,9.20
2022-09-24T07:17:58.733Z,9.21
2022-09-24T07:20:33.496Z,9.20
2022-09-24T07:23:07.159Z,9.14
2022-09-24T07:25:40.524Z,9.18
2022-09-24T07:28:16.009Z,9.16
2022-09-24T07:30:49.135Z,9.17
2022-09-24T07:33:22.116Z,9.18
2022-09-24T07:35:55.108Z,9.22
2022-09-24T07:38:28.235Z,9.20
2022-09-24T07:41:01.315Z,9.21
2022-09-24T07:43:34.167Z,9.19
2022-09-24T07:46:07.290Z,9.16
2022-09-24T07:48:40.578Z,9.18
2022-09-24T07:51:13.877Z,9.22
2022-09-24T07:53:46.796Z,9.21
2022-09-24T07:56:22.889Z,9.24
2022-09-24T07:58:55.658Z,9.28
2022-09-24T08:01:28.829Z,9.25
2022-09-24T08:04:02.590Z,9.24
2022-09-24T08:06:40.493Z,9.29
2022-09-24T08:09:11.843Z,9.32
2022-09-24T08:11:44.814Z,9.34
2022-09-24T08:14:17.850Z,9.38
2022-09-24T08:16:50.713Z,9.34
2022-09-24T08:19:23.727Z,9.33
2022-09-24T08:21:57.702Z,9.24
2022-09-24T08:24:31.136Z,9.28
2022-09-24T08:27:04.057Z,9.29
2022-09-24T08:29:37.126Z,9.35
2022-09-24T08:32:10.242Z,9.42
2022-09-24T08:34:43.079Z,9.41
2022-09-24T08:37:16.039Z,9.38
2022-09-24T08:39:48.869Z,9.40
2022-09-24T08:42:32.985Z,9.49
2022-09-24T08:45:42.745Z,9.59
2022-09-24T08:51:00.379Z,9.81
2022-09-24T08:53:36.520Z,9.80
2022-09-24T08:56:12.118Z,9.87
2022-09-24T08:58:50.384Z,9.84
2022-09-24T09:01:33.105Z,9.85
2022-09-24T09:04:11.192Z,9.86
2022-09-24T09:07:12.526Z,9.94
2022-09-24T09:09:49.146Z,10.01
2022-09-24T09:12:25.043Z,10.10
2022-09-24T09:15:02.907Z,10.10
2022-09-24T09:17:37.868Z,10.13
2022-09-24T09:20:18.071Z,10.21
2022-09-24T09:22:53.843Z,10.22
2022-09-24T09:25:30.126Z,10.25
2022-09-24T09:28:06.338Z,10.29
2022-09-24T09:30:43.661Z,10.40
2022-09-24T09:33:29.741Z,10.40
2022-09-24T09:36:05.631Z,10.45
2022-09-24T09:38:43.235Z,10.43
2022-09-24T09:44:02.619Z,10.47
2022-09-24T09:46:44.555Z,10.29
2022-09-24T09:49:24.955Z,10.27
2022-09-24T09:52:02.372Z,10.29
2022-09-24T09:54:42.217Z,10.40
2022-09-24T09:57:18.726Z,10.45
2022-09-24T09:59:53.610Z,10.43
2022-09-24T10:02:30.476Z,10.45
2022-09-24T10:05:05.318Z,10.50
2022-09-24T10:07:49.921Z,10.50
2022-09-24T10:10:25.859Z,10.50
2022-09-24T10:13:10.145Z,10.54
2022-09-24T10:15:50.999Z,10.55
2022-09-24T10:18:31.299Z,10.52
2022-09-24T10:21:09.149Z,10.41
2022-09-24T10:23:42.495Z,10.46
2022-09-24T10:26:15.739Z,10.60
2022-09-24T10:29:13.578Z,10.58
2022-09-24T10:31:50.047Z,10.64
2022-09-24T10:34:28.274Z,10.68
2022-09-24T10:37:10.279Z,10.68
2022-09-24T10:39:40.248Z,10.70
2022-09-24T10:42:25.527Z,10.51
2022-09-24T10:45:03.557Z,10.62
2022-09-24T10:47:43.067Z,10.57
2022-09-24T10:50:29.332Z,10.55
2022-09-24T10:53:06.857Z,10.58
2022-09-24T10:55:54.496Z,10.55
2022-09-24T10:58:47.771Z,10.60
2022-09-24T11:01:23.450Z,10.65
2022-09-24T11:04:26.275Z,10.65
2022-09-24T11:07:33.902Z,10.63
2022-09-24T11:10:12.361Z,10.54
2022-09-24T11:12:49.995Z,10.45
2022-09-24T11:15:29.919Z,10.43
2022-09-24T11:18:18.053Z,10.40
2022-09-24T11:20:55.855Z,10.35
2022-09-24T11:23:40.399Z,10.38
2022-09-24T11:26:18.210Z,10.48
2022-09-24T11:29:24.879Z,10.50
2022-09-24T11:32:04.791Z,10.54
2022-09-24T11:34:54.567Z,10.55
2022-09-24T11:37:41.069Z,10.62
2022-09-24T11:40:29.936Z,10.53
2022-09-24T11:43:10.138Z,10.50
2022-09-24T11:45:50.446Z,10.62
2022-09-24T11:48:53.796Z,10.61
2022-09-24T11:51:33.392Z,10.51
2022-09-24T11:54:10.226Z,10.50
2022-09-24T11:56:48.086Z,10.52
2022-09-24T11:59:25.023Z,10.54
2022-09-24T12:02:01.109Z,10.52
2022-09-24T12:04:40.244Z,10.48
2022-09-24T12:07:16.647Z,10.45
2022-09-24T12:09:53.011Z,10.47
2022-09-24T12:12:29.128Z,10.48
2022-09-24T12:15:05.215Z,10.50
2022-09-24T12:17:43.902Z,10.45
2022-09-24T12:20:21.844Z,10.41
2022-09-24T12:22:57.518Z,10.39
2022-09-24T12:25:33.172Z,10.43
2022-09-24T12:28:06.692Z,10.34
2022-09-24T12:31:02.985Z,10.35
2022-09-24T12:33:38.920Z,10.40
2022-09-24T12:36:15.038Z,10.40
2022-09-24T12:38:50.851Z,10.34
2022-09-24T12:41:36.293Z,10.26
2022-09-24T12:44:19.672Z,10.20
2022-09-24T12:46:52.411Z,10.13
2022-09-24T12:49:34.296Z,10.16
2022-09-24T12:52:19.359Z,10.21
2022-09-24T12:54:56.829Z,10.28
2022-09-24T12:57:34.121Z,10.30
2022-09-24T13:00:27.291Z,10.28
2022-09-24T13:03:01.434Z,10.18
2022-09-24T13:05:38.480Z,10.14
2022-09-24T13:08:27.964Z,10.15
2022-09-24T13:11:04.893Z,10.19
2022-09-24T13:13:42.613Z,10.19
2022-09-24T13:16:22.526Z,10.23
2022-09-24T13:18:58.320Z,10.22
2022-09-24T13:21:32.593Z,10.16
2022-09-24T13:24:13.126Z,10.16
2022-09-24T13:26:46.088Z,10.20
2022-09-24T13:29:29.606Z,10.25
2022-09-24T13:32:05.050Z,10.27
2022-09-24T13:34:39.128Z,10.23
2022-09-24T13:37:17.856Z,10.21
2022-09-24T13:39:54.996Z,10.18
2022-09-24T13:42:32.886Z,10.14
2022-09-24T13:45:09.697Z,10.12
2022-09-24T13:47:44.565Z,10.22
2022-09-24T13:50:21.252Z,10.14
2022-09-24T13:53:05.252Z,10.11
2022-09-24T13:55:41.067Z,10.16
2022-09-24T13:58:29.837Z,10.13
2022-09-24T14:01:10.220Z,10.01
2022-09-24T14:03:40.897Z,9.98
2022-09-24T14:06:16.879Z,10.02
2022-09-24T14:08:51.646Z,10.10
2022-09-24T14:11:27.269Z,10.08
2022-09-24T14:14:01.785Z,10.16
2022-09-24T14:16:34.764Z,10.11
2022-09-24T14:19:10.187Z,10.09
2022-09-24T14:21:46.175Z,10.07
2022-09-24T14:24:24.953Z,9.87
2022-09-24T14:27:01.192Z,9.76
2022-09-24T14:29:38.094Z,9.63
2022-09-24T14:32:24.086Z,9.53
2022-09-24T14:35:00.549Z,9.57
2022-09-24T14:37:36.836Z,9.58
2022-09-24T14:40:19.832Z,9.55
2022-09-24T14:45:49.590Z,9.57
2022-09-24T14:48:31.772Z,9.35
2022-09-24T14:51:05.424Z,9.33
2022-09-24T14:53:51.826Z,9.25
2022-09-24T14:56:33.014Z,9.29
2022-09-24T14:59:17.714Z,9.35
2022-09-24T15:02:01.867Z,9.31
2022-09-24T15:04:40.782Z,9.31
2022-09-24T15:07:19.197Z,9.39
2022-09-24T15:09:54.204Z,9.46
2022-09-24T15:12:31.648Z,9.47
2022-09-24T15:15:07.892Z,9.44
2022-09-24T15:17:40.870Z,9.45
2022-09-24T15:20:15.323Z,9.35
2022-09-24T15:22:49.342Z,9.21
2022-09-24T15:25:22.434Z,9.07
2022-09-24T15:27:55.423Z,8.98
2022-09-24T15:30:28.379Z,8.93
2022-09-24T15:33:01.301Z,8.92
2022-09-24T15:35:35.039Z,8.90
2022-09-24T15:38:08.015Z,8.86
2022-09-24T15:40:43.215Z,8.91
2022-09-24T15:43:21.514Z,8.90
2022-09-24T15:45:54.619Z,8.87
2022-09-24T15:48:27.569Z,8.84
2022-09-24T15:51:11.791Z,8.86
2022-09-24T15:53:42.502Z,8.90
2022-09-24T15:56:16.122Z,8.94
2022-09-24T15:58:49.009Z,8.93
2022-09-24T16:01:22.488Z,8.96
2022-09-24T16:03:57.337Z,8.91
2022-09-24T16:06:30.615Z,8.95
2022-09-24T16:09:04.233Z,9.03
2022-09-24T16:11:37.262Z,9.08
2022-09-24T16:14:10.412Z,9.04
2022-09-24T16:16:43.627Z,8.97
2022-09-24T16:19:16.921Z,8.89
2022-09-24T16:21:51.504Z,8.87
2022-09-24T16:24:25.981Z,8.87
2022-09-24T16:27:00.162Z,8.86
2022-09-24T16:29:33.046Z,8.83
2022-09-24T16:32:06.256Z,8.83
2022-09-24T16:34:39.140Z,8.82
2022-09-24T16:37:13.836Z,8.82
2022-09-24T16:39:47.782Z,8.83
2022-09-24T16:42:20.764Z,8.81
2022-09-24T16:44:53.833Z,8.81
2022-09-24T16:47:26.973Z,8.81
2022-09-24T16:49:59.793Z,8.84
2022-09-24T16:52:34.111Z,8.84
2022-09-24T16:55:09.164Z,8.83
2022-09-24T16:57:42.473Z,8.80
2022-09-24T17:00:16.696Z,8.84
2022-09-24T17:02:49.935Z,8.83
2022-09-24T17:05:22.930Z,8.82
2022-09-24T17:07:55.870Z,8.80
2022-09-24T17:10:28.796Z,8.76
2022-09-24T17:13:02.405Z,8.73
2022-09-24T17:15:36.995Z,8.72
2022-09-24T17:18:09.856Z,8.68
2022-09-24T17:20:42.709Z,8.63
2022-09-24T17:23:15.655Z,8.60
2022-09-24T17:25:48.487Z,8.61
2022-09-24T17:28:21.427Z,8.60
2022-09-24T17:30:58.443Z,8.60
2022-09-24T17:33:43.276Z,8.60
2022-09-24T17:36:09.361Z,8.60
2022-09-24T17:38:42.594Z,8.57
2022-09-24T17:41:16.306Z,8.58
2022-09-24T17:43:49.356Z,8.59
2022-09-24T17:46:23.527Z,8.58
2022-09-24T17:48:58.846Z,8.58
2022-09-24T17:51:33.569Z,8.56
2022-09-24T17:54:08.623Z,8.54
2022-09-24T17:56:42.041Z,8.52
2022-09-24T17:59:16.162Z,8.52
2022-09-24T18:01:53.481Z,8.53
2022-09-24T18:04:28.470Z,8.50
2022-09-24T18:07:01.273Z,8.51
2022-09-24T18:09:34.202Z,8.50
2022-09-24T18:12:07.494Z,8.52
2022-09-24T18:14:40.629Z,8.53
2022-09-24T18:17:13.504Z,8.54
2022-09-24T18:19:49.194Z,8.53
2022-09-24T18:22:22.734Z,8.54
2022-09-24T18:24:56.350Z,8.56
2022-09-24T18:27:29.243Z,8.54
2022-09-24T18:30:02.328Z,8.54
2022-09-24T18:32:37.197Z,8.52
2022-09-24T18:35:13.453Z,8.51
2022-09-24T18:37:46.555Z,8.49
2022-09-24T18:40:20.283Z,8.52
2022-09-24T18:42:53.725Z,8.53
2022-09-24T18:45:28.426Z,8.51
2022-09-24T18:48:01.428Z,8.48
2022-09-24T18:50:36.041Z,8.47
2022-09-24T18:53:09.099Z,8.49
2022-09-24T18:55:43.630Z,8.47
2022-09-24T18:58:16.600Z,8.47
2022-09-24T19:00:54.913Z,8.47
2022-09-24T19:03:31.126Z,8.46
2022-09-24T19:06:08.742Z,8.43
2022-09-24T19:08:46.683Z,8.43
2022-09-24T19:11:18.489Z,8.44
2022-09-24T19:13:53.590Z,8.53
2022-09-24T19:16:29.517Z,8.44
2022-09-24T19:19:03.026Z,8.44
2022-09-24T19:21:35.948Z,8.47
2022-09-24T19:24:11.651Z,8.47
2022-09-24T19:26:44.952Z,8.43
2022-09-24T19:29:20.519Z,8.44
2022-09-24T19:31:53.632Z,8.43
2022-09-24T19:34:27.516Z,8.42
2022-09-24T19:37:03.279Z,8.41
2022-09-24T19:39:38.935Z,8.41
2022-09-24T19:42:19.068Z,8.44
2022-09-24T19:44:56.519Z,8.45
2022-09-24T19:47:30.438Z,8.46
2022-09-24T19:50:03.759Z,8.47
2022-09-24T19:52:36.507Z,8.45
2022-09-24T19:55:10.901Z,8.44
2022-09-24T19:57:44.299Z,8.40
2022-09-24T20:00:17.844Z,8.38
2022-09-24T20:02:50.884Z,8.37
2022-09-24T20:05:24.078Z,8.36
2022-09-24T20:07:56.941Z,8.37
2022-09-24T20:10:30.105Z,8.35
2022-09-24T20:13:02.985Z,8.34
2022-09-24T20:15:35.870Z,8.35
2022-09-24T20:18:11.787Z,8.38
2022-09-24T20:20:44.733Z,8.40
2022-09-24T20:23:17.690Z,8.46
2022-09-24T20:26:12.151Z,8.49
2022-09-24T20:28:45.760Z,8.52
2022-09-24T20:31:21.144Z,8.54
2022-09-24T20:33:54.730Z,8.55
2022-09-24T20:36:29.132Z,8.58
2022-09-24T20:39:03.768Z,8.62
2022-09-24T20:41:36.648Z,8.66
2022-09-24T20:44:09.775Z,8.71
2022-09-24T20:46:43.024Z,8.71
2022-09-24T20:49:22.888Z,8.71
2022-09-24T20:51:58.003Z,8.74
2022-09-24T20:54:31.674Z,8.69
2022-09-24T20:57:06.872Z,8.70
2022-09-24T20:59:39.821Z,8.66
2022-09-24T21:02:14.180Z,8.63
2022-09-24T21:04:49.829Z,8.64
2022-09-24T21:07:25.184Z,8.61
2022-09-24T21:10:00.986Z,8.59
2022-09-24T21:12:34.692Z,8.59
2022-09-24T21:15:09.646Z,8.60
2022-09-24T21:17:59.457Z,8.62
2022-09-24T21:20:18.592Z,8.63
2022-09-24T21:22:51.515Z,8.65
2022-09-24T21:25:52.289Z,8.62
2022-09-24T21:28:00.116Z,8.60
2022-09-24T21:30:33.014Z,8.57
2022-09-24T21:33:06.018Z,8.55
2022-09-24T21:35:38.836Z,8.57
2022-09-24T21:38:11.741Z,8.60
2022-09-24T21:40:44.632Z,8.62
2022-09-24T21:43:17.602Z,8.62
2022-09-24T21:45:52.146Z,8.64
2022-09-24T21:48:26.681Z,8.64
2022-09-24T21:51:06.625Z,8.62
2022-09-24T21:53:39.909Z,8.62
2022-09-24T21:56:12.780Z,8.57
2022-09-24T21:58:46.096Z,8.56
2022-09-24T22:01:20.958Z,8.56
2022-09-24T22:03:55.704Z,8.56
2022-09-24T22:06:30.632Z,8.58
2022-09-24T22:09:06.381Z,8.60
2022-09-24T22:11:40.159Z,8.65
2022-09-24T22:14:13.477Z,8.65
2022-09-24T22:16:46.499Z,8.64
2022-09-24T22:19:19.562Z,8.58
2022-09-24T22:21:52.625Z,8.59
2022-09-24T22:24:25.583Z,8.60
2022-09-24T22:26:59.945Z,8.62
2022-09-24T22:29:33.024Z,8.62
2022-09-24T22:32:06.310Z,8.62
2022-09-24T22:34:56.621Z,8.59
2022-09-24T22:37:30.576Z,8.57
2022-09-24T22:40:03.776Z,8.56
2022-09-24T22:42:36.587Z,8.57
2022-09-24T22:45:13.105Z,8.63
2022-09-24T22:47:47.727Z,8.62
2022-09-24T22:50:20.847Z,8.58
2022-09-24T22:52:57.153Z,8.58
2022-09-24T22:55:30.087Z,8.59
2022-09-24T22:58:02.923Z,8.62
2022-09-24T23:00:38.119Z,8.66
2022-09-24T23:03:11.040Z,8.67
2022-09-24T23:05:45.323Z,8.66
2022-09-24T23:08:18.160Z,8.65
2022-09-24T23:10:50.979Z,8.64
2022-09-24T23:13:24.808Z,8.60
2022-09-24T23:15:57.609Z,8.62
2022-09-24T23:18:30.534Z,8.64
2022-09-24T23:21:07.273Z,8.70
2022-09-24T23:23:40.330Z,8.77
2022-09-24T23:26:16.822Z,8.79
2022-09-24T23:28:52.024Z,8.79
2022-09-24T23:31:27.750Z,8.78
2022-09-24T23:34:01.713Z,8.76
2022-09-24T23:36:35.634Z,8.82
2022-09-24T23:39:08.449Z,8.84
2022-09-24T23:41:41.850Z,8.83
2022-09-24T23:44:15.143Z,8.84
2022-09-24T23:46:48.066Z,8.91
2022-09-24T23:49:20.965Z,8.96
2022-09-24T23:51:54.232Z,8.99
2022-09-24T23:54:28.340Z,9.05
2022-09-24T23:57:01.983Z,9.08
2022-09-24T23:59:35.154Z,8.98
